^^
Meteo Knjazevac Station Historical Data
Daily Summary for June 3, 2021 Units:  Both    English   Metric
Daily Weekly Monthly Yearly Custom
  High: Low: Average:
Temperature: 52.2 °F /  11.2 °C 51.3 °F /  10.7 °C 51.8 °F /  11 °C
Dew Point: 42.3 °F /  5.7 °C 40.7 °F /  4.8 °C 41.3 °F /  5.2 °C
Humidity: 69% 65% 67%
Wind Speed: 8mph /  12.9km/h - 3.9mph /  6.3km/h
Wind Gust: 17mph /  27.4km/h - -
Wind- - SE
Pressure: 29.72 in /  1006.3 hPa 29.69 in /  1005.3 hPa -
Precipitation: 0.00 in /  0 mm    
Historical Graphs
 
 
Tabular Data for June 3, 2021
Time Temperature Dew Point Pressure Wind Wind Speed Wind Gust Humidity Rainfall Rate (Hourly) solar Conditions
00:00 51.3 °F /  10.7 °C 40.7 °F /  4.8 °C 29.71in /  1006hPa SE 2mph /  3.2km/h 8mph /  12.9km/h 67% 0.00in /  0mm 0 W/m2
00:10 51.3 °F /  10.7 °C 40.7 °F /  4.8 °C 29.71in /  1006hPa SSE 3mph /  4.8km/h 9mph /  14.5km/h 67% 0.00in /  0mm 0 W/m2
00:20 51.3 °F /  10.7 °C 40.7 °F /  4.8 °C 29.72in /  1006.3hPa South 7mph /  11.3km/h 14mph /  22.5km/h 67% 0.00in /  0mm 0 W/m2
00:30 51.3 °F /  10.7 °C 40.7 °F /  4.8 °C 29.71in /  1006hPa South 6mph /  9.7km/h 12mph /  19.3km/h 67% 0.00in /  0mm 0 W/m2
00:40 51.3 °F /  10.7 °C 40.8 °F /  4.9 °C 29.70in /  1005.6hPa SSE 6mph /  9.7km/h 16mph /  25.7km/h 67% 0.00in /  0mm 0 W/m2
00:50 51.5 °F /  10.8 °C 40.9 °F /  4.9 °C 29.70in /  1005.6hPa SSE 8mph /  12.9km/h 17mph /  27.4km/h 67% 0.00in /  0mm 0 W/m2
01:00 51.8 °F /  11 °C 41.2 °F /  5.1 °C 29.70in /  1005.6hPa SSE 6mph /  9.7km/h 15mph /  24.1km/h 67% 0.00in /  0mm 0 W/m2
01:10 52 °F /  11.1 °C 41 °F /  5 °C 29.70in /  1005.6hPa SE 8mph /  12.9km/h 14mph /  22.5km/h 66% 0.00in /  0mm 0 W/m2
01:20 52 °F /  11.1 °C 41.4 °F /  5.2 °C 29.70in /  1005.6hPa SE 7mph /  11.3km/h 15mph /  24.1km/h 67% 0.00in /  0mm 0 W/m2
01:30 52.2 °F /  11.2 °C 40.7 °F /  4.8 °C 29.70in /  1005.6hPa SE 6mph /  9.7km/h 15mph /  24.1km/h 65% 0.00in /  0mm 0 W/m2
01:40 52.2 °F /  11.2 °C 40.7 °F /  4.8 °C 29.71in /  1006hPa SE 5mph /  8km/h 12mph /  19.3km/h 65% 0.00in /  0mm 0 W/m2
01:50 52 °F /  11.1 °C 41.4 °F /  5.2 °C 29.70in /  1005.6hPa East 6mph /  9.7km/h 10mph /  16.1km/h 67% 0.00in /  0mm 0 W/m2
02:00 51.8 °F /  11 °C 41.2 °F /  5.1 °C 29.70in /  1005.6hPa ENE 2mph /  3.2km/h 12mph /  19.3km/h 67% 0.00in /  0mm 0 W/m2
02:10 51.8 °F /  11 °C 41.2 °F /  5.1 °C 29.70in /  1005.6hPa ESE 3mph /  4.8km/h 7mph /  11.3km/h 67% 0.00in /  0mm 0 W/m2
02:20 51.6 °F /  10.9 °C 41.4 °F /  5.2 °C 29.69in /  1005.3hPa NNE 3mph /  4.8km/h 4mph /  6.4km/h 68% 0.00in /  0mm 0 W/m2
02:30 51.6 °F /  10.9 °C 41.4 °F /  5.2 °C 29.70in /  1005.6hPa East 3mph /  4.8km/h 8mph /  12.9km/h 68% 0.00in /  0mm 0 W/m2
02:40 51.8 °F /  11 °C 41.6 °F /  5.3 °C 29.69in /  1005.3hPa SE 2mph /  3.2km/h 7mph /  11.3km/h 68% 0.00in /  0mm 0 W/m2
02:50 52.2 °F /  11.2 °C 41.5 °F /  5.3 °C 29.69in /  1005.3hPa SE 2mph /  3.2km/h 9mph /  14.5km/h 67% 0.00in /  0mm 0 W/m2
03:00 52.2 °F /  11.2 °C 41.5 °F /  5.3 °C 29.70in /  1005.6hPa East 3mph /  4.8km/h 7mph /  11.3km/h 67% 0.00in /  0mm 0 W/m2
03:10 52.2 °F /  11.2 °C 41.9 °F /  5.5 °C 29.70in /  1005.6hPa Calm   6mph /  9.7km/h 68% 0.00in /  0mm 0 W/m2
03:20 52.1 °F /  11.2 °C 41.8 °F /  5.4 °C 29.69in /  1005.3hPa NNE 2mph /  3.2km/h 4mph /  6.4km/h 68% 0.00in /  0mm 0 W/m2
03:30 52.2 °F /  11.2 °C 41.9 °F /  5.5 °C 29.69in /  1005.3hPa ENE 1mph /  1.6km/h 6mph /  9.7km/h 68% 0.00in /  0mm 0 W/m2
03:40 52 °F /  11.1 °C 42.1 °F /  5.6 °C 29.69in /  1005.3hPa West 1mph /  1.6km/h 7mph /  11.3km/h 69% 0.00in /  0mm 0 W/m2
03:50 52.2 °F /  11.2 °C 42.3 °F /  5.7 °C 29.69in /  1005.3hPa SSE 3mph /  4.8km/h 7mph /  11.3km/h 69% 0.00in /  0mm 0 W/m2
04:00 52 °F /  11.1 °C 41.7 °F /  5.4 °C 29.70in /  1005.6hPa South 2mph /  3.2km/h 6mph /  9.7km/h 68% 0.00in /  0mm 0 W/m2
Knjazevac, Serbia
Compliments of Weather Underground - 2 mb